Time;durP1;ratioP1;P1;durP2;ratioP2;P2;SDS_P1;SDS_P2;PMS_P1;PMS_P2;Temp;Humidity;BMP_temperature;BMP_pressure;BME280_temperature;BME280_humidity;BME280_pressure;Samples;Min_cycle;Max_cycle;Signal;HPM_P1;HPM_P2
2022/03/20 00:02:25;;;;;;;36.80;4.15;;;;;;;19.56;57.98;101532.22;7315852;19;129745;-39
2022/03/20 00:04:50;;;;;;;37.95;3.97;;;;;;;19.64;57.84;101548.31;7317505;19;130518;-40
2022/03/20 00:07:16;;;;;;;33.05;3.90;;;;;;;19.65;57.79;101544.81;7316092;19;129241;-40
2022/03/20 00:09:42;;;;;;;29.17;3.73;;;;;;;19.63;58.17;101542.28;7315176;19;129431;-40
2022/03/20 00:12:08;;;;;;;24.63;2.83;;;;;;;19.53;57.38;101525.41;7316918;19;130252;-39
2022/03/20 00:14:33;;;;;;;21.77;3.05;;;;;;;19.54;58.72;101527.09;7315276;19;130942;-39
2022/03/20 00:16:59;;;;;;;32.10;3.90;;;;;;;19.63;58.17;101547.50;7314151;19;154703;-41
2022/03/20 00:19:25;;;;;;;33.05;3.95;;;;;;;19.62;58.13;101542.34;7314622;19;129160;-40
2022/03/20 00:21:50;;;;;;;37.20;4.47;;;;;;;19.65;58.72;101536.97;7315722;19;130856;-41
2022/03/20 00:24:16;;;;;;;34.63;4.03;;;;;;;19.58;57.47;101527.78;7314152;19;158684;-39
2022/03/20 00:26:42;;;;;;;23.17;3.00;;;;;;;19.62;58.37;101534.53;7314583;19;130137;-40
2022/03/20 00:29:07;;;;;;;27.65;3.38;;;;;;;19.64;57.83;101536.13;7313543;19;129342;-40
2022/03/20 00:31:33;;;;;;;34.70;3.97;;;;;;;19.62;58.48;101530.13;7314008;19;154569;-41
2022/03/20 00:33:59;;;;;;;21.10;3.00;;;;;;;19.64;58.39;101532.66;7314778;19;130475;-41
2022/03/20 00:36:25;;;;;;;42.40;4.43;;;;;;;19.63;58.75;101529.22;7314157;19;129026;-41
2022/03/20 00:38:50;;;;;;;34.00;3.95;;;;;;;19.63;57.02;101528.38;7314985;19;129168;-39
2022/03/20 00:41:15;;;;;;;25.95;3.33;;;;;;;19.55;58.27;101507.06;7312315;19;128950;-39
2022/03/20 00:43:40;;;;;;;32.70;4.00;;;;;;;19.65;58.21;101523.94;7312865;19;156912;-40
2022/03/20 00:46:06;;;;;;;37.87;4.53;;;;;;;19.52;57.78;101512.44;7311676;19;155819;-40
2022/03/20 00:48:31;;;;;;;26.70;3.17;;;;;;;19.63;58.03;101528.38;7312741;19;156900;-40
2022/03/20 00:51:03;;;;;;;30.23;4.10;;;;;;;19.63;57.99;101531.84;7309718;19;158392;-39
2022/03/20 00:53:28;;;;;;;36.08;4.10;;;;;;;19.59;58.39;101521.63;7314049;19;129216;-39
2022/03/20 00:55:54;;;;;;;43.22;5.15;;;;;;;19.64;58.25;101519.63;7313074;19;130249;-42
2022/03/20 00:58:20;;;;;;;33.15;3.95;;;;;;;19.63;58.55;101520.53;7311974;19;153981;-41
2022/03/20 01:00:45;;;;;;;32.28;3.97;;;;;;;19.60;57.62;101513.75;7312644;19;131538;-40
2022/03/20 01:03:11;;;;;;;32.85;3.90;;;;;;;19.63;58.10;101517.94;7313623;19;130317;-40
2022/03/20 01:05:36;;;;;;;41.50;4.55;;;;;;;19.62;58.36;101516.25;7311248;19;129066;-41
2022/03/20 01:08:02;;;;;;;38.72;4.13;;;;;;;19.64;58.38;101517.00;7313687;19;129426;-40
2022/03/20 01:10:28;;;;;;;30.37;3.97;;;;;;;19.61;57.68;101520.63;7311910;19;130544;-40
2022/03/20 01:12:54;;;;;;;50.72;5.10;;;;;;;19.65;57.24;101508.28;7310463;19;129305;-40
2022/03/20 01:15:19;;;;;;;51.22;5.43;;;;;;;19.65;58.40;101513.50;7312450;19;129597;-40
2022/03/20 01:17:44;;;;;;;24.63;3.80;;;;;;;19.66;58.49;101507.34;7312347;19;153957;-40
2022/03/20 01:20:11;;;;;;;43.10;4.85;;;;;;;19.62;57.51;101501.44;7309454;19;158951;-38
2022/03/20 01:22:37;;;;;;;;;;;;;;;19.69;58.33;101504.56;7313581;19;130566;-40
2022/03/20 01:25:04;;;;;;;40.25;4.82;;;;;;;19.62;57.70;101495.41;7311171;19;129237;-40
2022/03/20 01:27:29;;;;;;;33.95;3.95;;;;;;;19.63;58.00;101503.13;7308477;19;129234;-40
2022/03/20 01:29:55;;;;;;;51.58;5.55;;;;;;;19.60;58.03;101484.19;7306388;19;158670;-40
2022/03/20 01:32:20;;;;;;;34.03;4.03;;;;;;;19.63;58.28;101503.13;7313043;19;130484;-40
2022/03/20 01:34:47;;;;;;;24.10;3.10;;;;;;;19.60;57.53;101494.63;7312713;19;129291;-40
2022/03/20 01:37:12;;;;;;;30.27;3.58;;;;;;;19.63;57.22;101490.09;7310259;19;129743;-40
2022/03/20 01:39:37;;;;;;;36.20;4.32;;;;;;;19.63;58.10;101495.31;7312144;19;130962;-41
2022/03/20 01:42:05;;;;;;;43.63;4.78;;;;;;;19.55;57.34;101488.81;7312454;19;131615;-41
2022/03/20 01:44:32;;;;;;;34.10;4.28;;;;;;;19.63;57.83;101489.25;7312720;19;129270;-39
2022/03/20 01:46:58;;;;;;;39.40;4.53;;;;;;;19.62;58.44;101491.00;7310762;19;129604;-38
2022/03/20 01:49:23;;;;;;;44.80;5.33;;;;;;;19.63;58.21;101502.28;7310859;19;130327;-41
2022/03/20 01:54:33;;;;;;;31.55;3.92;;;;;;;19.62;57.71;101482.34;7313410;19;129503;-41
2022/03/20 01:56:59;;;;;;;50.13;5.27;;;;;;;19.60;57.52;101479.81;7310761;19;129764;-39
2022/03/20 01:59:24;;;;;;;22.77;3.27;;;;;;;19.52;57.98;101462.88;7309711;19;130180;-41
2022/03/20 02:01:50;;;;;;;19.55;3.85;;;;;;;19.62;58.79;101477.13;7310496;19;158318;-40
2022/03/20 02:04:15;;;;;;;42.80;4.63;;;;;;;19.62;57.65;101477.13;7310556;19;154231;-39
2022/03/20 02:06:42;;;;;;;27.67;3.53;;;;;;;19.63;57.51;101468.38;7311954;19;130031;-42
2022/03/20 02:09:08;;;;;;;19.02;3.10;;;;;;;19.62;58.20;101462.28;7309618;19;130276;-40
2022/03/20 02:11:33;;;;;;;28.23;3.55;;;;;;;19.62;58.40;101461.47;7311876;19;130680;-40
2022/03/20 02:13:59;;;;;;;34.38;4.30;;;;;;;19.57;58.01;101459.09;7311866;19;129317;-40
2022/03/20 02:16:24;;;;;;;37.75;4.35;;;;;;;19.54;58.52;101445.34;7309578;19;153547;-41
2022/03/20 02:18:50;;;;;;;33.20;4.20;;;;;;;19.53;58.11;101441.94;7312105;19;129788;-41
2022/03/20 02:21:18;;;;;;;29.80;3.90;;;;;;;19.61;58.27;101451.94;7308889;19;130367;-39
2022/03/20 02:23:44;;;;;;;28.88;3.85;;;;;;;19.61;58.05;101449.34;7311814;19;129907;-40
2022/03/20 02:26:10;;;;;;;44.63;5.25;;;;;;;19.58;58.27;101446.91;7309591;19;140758;-41
2022/03/20 02:28:35;;;;;;;32.30;3.85;;;;;;;19.63;57.55;101452.72;7310914;19;130011;-41
2022/03/20 02:31:00;;;;;;;25.15;3.28;;;;;;;19.59;58.12;101446.81;7310062;19;130297;-41
2022/03/20 02:33:27;;;;;;;26.95;3.53;;;;;;;19.63;58.47;101452.72;7310269;19;154747;-39
2022/03/20 02:35:53;;;;;;;34.58;4.45;;;;;;;19.61;57.54;101444.13;7310038;19;129676;-41
2022/03/20 02:38:20;;;;;;;42.42;4.68;;;;;;;19.62;57.69;101451.03;7310817;19;129405;-41
2022/03/20 02:40:46;;;;;;;34.65;4.30;;;;;;;19.61;58.42;101449.34;7308079;19;130368;-39
2022/03/20 02:43:12;;;;;;;37.22;4.30;;;;;;;19.58;58.05;101454.72;7311009;19;129475;-41
2022/03/20 02:45:37;;;;;;;30.33;4.15;;;;;;;19.61;57.95;101460.63;7308320;19;154704;-40
2022/03/20 02:48:06;;;;;;;25.08;3.30;;;;;;;19.60;57.70;101452.88;7311174;19;139324;-40
2022/03/20 02:50:36;;;;;;;34.17;3.85;;;;;;;19.62;58.27;101456.25;7307231;19;130288;-41
2022/03/20 02:53:04;;;;;;;28.95;3.80;;;;;;;19.60;58.57;101456.34;7310825;19;129197;-41
2022/03/20 02:55:35;;;;;;;72.20;7.43;;;;;;;19.54;57.97;101447.97;7308991;19;129121;-41
2022/03/20 02:58:01;;;;;;;12.85;2.63;;;;;;;19.62;58.36;101458.88;7310686;19;130157;-41
2022/03/20 03:00:29;;;;;;;38.42;4.45;;;;;;;19.59;58.43;101446.81;7308243;19;129074;-40
2022/03/20 03:02:57;;;;;;;25.00;3.55;;;;;;;19.61;58.21;101449.34;7310566;19;130074;-40
2022/03/20 03:05:24;;;;;;;68.55;7.50;;;;;;;19.60;57.98;101458.94;7310785;19;128975;-40
2022/03/20 03:10:55;;;;;;;35.45;4.45;;;;;;;19.60;57.34;101453.72;7308914;19;129657;-41
2022/03/20 03:13:32;;;;;;;29.58;3.63;;;;;;;19.60;58.16;101458.09;7311561;19;129303;-41
2022/03/20 03:16:00;;;;;;;27.88;3.85;;;;;;;19.60;58.28;101453.72;7309405;19;129025;-40
2022/03/20 03:18:26;;;;;;;48.40;5.50;;;;;;;19.59;57.25;101452.03;7310966;19;130645;-39
2022/03/20 03:20:52;;;;;;;24.85;3.38;;;;;;;19.53;58.28;101435.84;7307993;19;129324;-39
2022/03/20 03:23:18;;;;;;;32.35;4.10;;;;;;;19.48;58.89;101439.53;7309811;19;129657;-40
2022/03/20 03:25:44;;;;;;;33.17;4.05;;;;;;;19.57;58.01;101453.88;7310066;19;129714;-40
2022/03/20 03:28:10;;;;;;;35.80;4.47;;;;;;;19.58;57.78;101459.94;7310209;19;130182;-41
2022/03/20 03:30:37;;;;;;;32.38;4.07;;;;;;;19.58;57.65;101460.78;7308022;19;130368;-39
2022/03/20 03:33:02;;;;;;;30.50;3.75;;;;;;;19.60;57.77;101464.16;7309702;19;129121;-40
2022/03/20 03:35:43;;;;;;;43.47;5.10;;;;;;;19.57;57.34;101453.88;7308328;19;139293;-37
2022/03/20 03:38:13;;;;;;;26.00;3.50;;;;;;;19.57;58.44;101458.28;7309544;19;131040;-40
2022/03/20 03:40:39;;;;;;;41.90;4.57;;;;;;;19.58;58.21;101454.72;7306974;19;158652;-40
2022/03/20 03:43:06;;;;;;;23.60;3.25;;;;;;;19.58;58.54;101455.56;7308308;19;129608;-41
2022/03/20 03:45:31;;;;;;;34.55;4.80;;;;;;;19.61;58.11;101459.78;7306762;19;129590;-41
2022/03/20 03:47:56;;;;;;;27.15;3.30;;;;;;;19.59;58.39;101451.19;7309509;19;131955;-41
2022/03/20 03:50:22;;;;;;;45.72;5.13;;;;;;;19.57;58.27;101456.47;7307983;19;130405;-41
2022/03/20 03:52:48;;;;;;;36.38;4.47;;;;;;;19.57;58.05;101451.25;7308996;19;128907;-41
2022/03/20 03:55:14;;;;;;;48.30;5.47;;;;;;;19.57;58.19;101453.06;7309113;19;131192;-41
2022/03/20 03:57:47;;;;;;;29.35;3.92;;;;;;;19.58;58.66;101459.94;7311407;19;129167;-41
2022/03/20 04:00:14;;;;;;;42.80;4.63;;;;;;;19.58;58.43;101449.50;7315397;19;130972;-40
2022/03/20 04:02:39;;;;;;;24.95;3.58;;;;;;;19.59;58.29;101456.41;7315763;19;129020;-38
2022/03/20 04:05:05;;;;;;;45.10;4.88;;;;;;;19.57;58.08;101451.25;7313445;19;154974;-40
2022/03/20 04:07:31;;;;;;;26.23;3.80;;;;;;;19.57;58.46;101458.28;7316484;19;130007;-40
2022/03/20 04:09:56;;;;;;;40.97;4.35;;;;;;;19.59;57.98;101453.78;7312947;19;154057;-41
2022/03/20 04:12:21;;;;;;;28.48;3.60;;;;;;;19.59;58.73;101446.81;7316510;19;129172;-40
2022/03/20 04:14:48;;;;;;;39.50;4.43;;;;;;;19.60;58.33;101450.28;7315441;19;129356;-40
2022/03/20 04:17:16;;;;;;;29.88;3.65;;;;;;;19.58;58.06;101452.97;7312576;19;130787;-40
2022/03/20 04:19:41;;;;;;;53.55;5.28;;;;;;;19.58;58.23;101452.13;7314140;19;129698;-39
2022/03/20 04:22:07;;;;;;;30.42;3.95;;;;;;;19.57;58.70;101447.84;7314830;19;128931;-41
2022/03/20 04:24:33;;;;;;;21.23;3.10;;;;;;;19.57;58.76;101437.41;7315283;19;129591;-41
2022/03/20 04:26:58;;;;;;;39.08;4.95;;;;;;;19.57;58.06;101442.63;7312522;19;130217;-40
2022/03/20 04:29:31;;;;;;;26.33;3.53;;;;;;;19.57;58.63;101442.63;7314471;19;130280;-41
2022/03/20 04:31:57;;;;;;;56.13;5.65;;;;;;;19.57;57.25;101442.63;7314913;19;128715;-41
2022/03/20 04:34:24;;;;;;;28.65;3.60;;;;;;;19.58;57.84;101446.91;7314116;19;141573;-41
2022/03/20 04:36:50;;;;;;;40.58;4.88;;;;;;;19.56;57.74;101446.97;7313524;19;130134;-39
2022/03/20 04:39:16;;;;;;;27.23;3.42;;;;;;;19.59;58.16;101451.19;7315711;19;130293;-40
2022/03/20 04:41:41;;;;;;;8.50;2.25;;;;;;;19.59;58.26;101459.00;7315550;19;129011;-40
2022/03/20 04:44:12;;;;;;;21.60;3.22;;;;;;;19.57;58.36;101458.28;7313700;19;155502;-40
2022/03/20 04:46:38;;;;;;;32.47;3.95;;;;;;;19.56;58.33;101451.34;7314402;19;130295;-41
2022/03/20 04:59:58;;;;;;;49.22;5.43;;;;;;;19.55;58.21;101452.28;7313496;19;129494;-40
2022/03/20 05:02:24;;;;;;;35.78;4.20;;;;;;;19.58;58.09;101463.41;7312269;19;155057;-41
2022/03/20 05:04:49;;;;;;;38.73;4.57;;;;;;;19.58;58.65;101462.56;7312286;19;154240;-41
2022/03/20 05:07:15;;;;;;;27.15;3.38;;;;;;;19.57;58.33;101458.28;7313195;19;130164;-38
2022/03/20 05:15:10;;;;;;;55.83;6.22;;;;;;;19.56;58.81;101465.25;7313757;19;130867;-37
2022/03/20 05:17:36;;;;;;;20.73;3.17;;;;;;;19.47;57.86;101451.84;7313277;19;129307;-39
2022/03/20 05:20:03;;;;;;;26.73;3.58;;;;;;;19.55;58.36;101463.56;7312943;19;130209;-40
2022/03/20 05:22:28;;;;;;;25.95;3.67;;;;;;;19.55;58.07;101466.19;7313809;19;129778;-40
2022/03/20 05:24:54;;;;;;;35.08;4.45;;;;;;;19.57;57.54;101468.69;7314724;19;128888;-40
2022/03/20 05:27:19;;;;;;;47.53;5.40;;;;;;;19.56;58.25;101472.22;7311184;19;130806;-39
2022/03/20 05:29:44;;;;;;;30.23;3.72;;;;;;;19.50;58.26;101472.53;7311556;19;158414;-41
2022/03/20 05:32:10;;;;;;;24.02;3.40;;;;;;;19.56;58.32;101480.03;7312142;19;154624;-40
2022/03/20 05:34:37;;;;;;;25.20;3.63;;;;;;;19.56;58.70;101474.81;7314464;19;129025;-41
2022/03/20 05:37:02;;;;;;;34.75;4.15;;;;;;;19.57;58.52;101479.13;7311735;19;130580;-41
2022/03/20 05:39:28;;;;;;;41.40;4.93;;;;;;;19.55;58.73;101475.75;7312643;19;130343;-40
2022/03/20 05:41:54;;;;;;;33.45;4.15;;;;;;;19.56;58.26;101480.03;7313621;19;129847;-41
2022/03/20 05:44:25;;;;;;;31.08;3.70;;;;;;;19.53;58.37;101478.44;7313917;19;130650;-38
2022/03/20 05:46:52;;;;;;;33.40;4.40;;;;;;;19.55;57.83;101481.81;7311509;19;130567;-40
2022/03/20 05:49:18;;;;;;;;;;;;;;;19.60;58.78;101489.41;7313739;19;131819;-41
2022/03/20 05:51:43;;;;;;;25.10;3.53;;;;;;;19.57;58.26;101484.34;7314789;19;129710;-41
2022/03/20 05:54:09;;;;;;;24.92;3.22;;;;;;;19.53;59.29;101486.28;7313061;19;130616;-38
2022/03/20 05:59:19;;;;;;;43.33;4.85;;;;;;;19.55;58.24;101492.25;7310780;19;129145;-40
2022/03/20 06:01:44;;;;;;;32.17;3.83;;;;;;;19.57;58.32;101500.00;7309792;19;153631;-42
2022/03/20 06:04:10;;;;;;;26.65;3.38;;;;;;;19.52;57.69;101492.41;7312270;19;129669;-41
2022/03/20 06:06:37;;;;;;;30.30;3.83;;;;;;;19.56;58.37;101490.47;7311083;19;130250;-41
2022/03/20 06:09:06;;;;;;;46.08;5.35;;;;;;;19.54;58.67;101500.16;7311037;19;129704;-41
2022/03/20 06:11:34;;;;;;;25.52;3.45;;;;;;;19.54;57.92;101500.16;7309682;19;128986;-40
2022/03/20 06:14:00;;;;;;;34.63;4.43;;;;;;;19.55;58.78;101512.28;7311336;19;129140;-39
2022/03/20 06:16:26;;;;;;;31.80;4.18;;;;;;;19.55;58.82;101502.69;7311393;19;130863;-41
2022/03/20 06:18:51;;;;;;;46.28;4.85;;;;;;;19.55;58.52;101504.47;7310657;19;130162;-39
2022/03/20 06:21:16;;;;;;;30.48;3.85;;;;;;;19.55;58.24;101512.28;7306129;19;154414;-41
2022/03/20 06:23:42;;;;;;;39.90;4.53;;;;;;;19.45;58.54;101498.88;7311109;19;151853;-39
2022/03/20 06:26:08;;;;;;;30.23;3.73;;;;;;;19.42;58.21;101494.66;7308794;19;158545;-41
2022/03/20 06:28:34;;;;;;;17.48;2.83;;;;;;;19.54;58.49;101515.78;7311177;19;131217;-40
2022/03/20 06:31:00;;;;;;;39.05;4.90;;;;;;;19.45;57.30;101502.31;7308355;19;129622;-40
2022/03/20 06:33:25;;;;;;;39.95;4.57;;;;;;;19.53;57.68;101519.34;7310517;19;129513;-41
2022/03/20 06:35:51;;;;;;;28.85;3.75;;;;;;;19.50;58.14;101514.28;7311073;19;130680;-41
2022/03/20 06:38:16;;;;;;;39.50;4.25;;;;;;;19.52;58.33;101528.09;7311362;19;130249;-40
2022/03/20 06:40:42;;;;;;;24.08;3.28;;;;;;;19.54;57.82;101526.22;7307918;19;154414;-40
2022/03/20 06:43:07;;;;;;;23.08;2.92;;;;;;;19.54;58.29;101534.06;7309368;19;154100;-40
2022/03/20 06:45:32;;;;;;;34.03;4.13;;;;;;;19.52;58.39;101530.72;7308519;19;158365;-41
2022/03/20 06:47:59;;;;;;;48.03;4.80;;;;;;;19.52;58.63;101521.09;7311432;19;130842;-39
2022/03/20 06:50:24;;;;;;;58.83;6.00;;;;;;;19.53;58.27;101524.56;7306321;19;154709;-40
2022/03/20 06:52:50;;;;;;;46.13;4.93;;;;;;;19.54;58.31;101536.66;7309541;19;154354;-41
2022/03/20 06:55:16;;;;;;;22.60;3.47;;;;;;;19.52;57.71;101533.31;7307262;19;159185;-39
2022/03/20 06:57:43;;;;;;;27.48;3.58;;;;;;;19.51;58.36;101526.41;7310815;19;130565;-40
2022/03/20 07:00:10;;;;;;;27.38;3.55;;;;;;;19.52;58.30;101533.31;7307920;19;130800;-37
2022/03/20 07:02:35;;;;;;;45.92;4.53;;;;;;;19.53;58.18;101545.44;7304558;19;129587;-40
2022/03/20 07:05:01;;;;;;;43.22;4.88;;;;;;;19.55;57.81;101539.22;7306967;19;130071;-38
2022/03/20 07:07:27;;;;;;;32.30;3.88;;;;;;;19.53;58.74;101545.44;7309501;19;130389;-39
2022/03/20 07:09:52;;;;;;;39.95;4.43;;;;;;;19.49;58.57;101521.25;7307664;19;154644;-41
2022/03/20 07:12:18;;;;;;;28.05;3.55;;;;;;;19.51;58.05;101529.00;7310744;19;129912;-39
2022/03/20 07:14:44;;;;;;;42.80;4.57;;;;;;;19.54;58.78;101539.28;7309611;19;130164;-38
2022/03/20 07:17:12;;;;;;;31.75;3.92;;;;;;;19.51;58.71;101536.81;7308182;19;129796;-39
2022/03/20 07:19:40;;;;;;;21.05;3.42;;;;;;;19.52;58.74;101530.72;7309935;19;129339;-41
2022/03/20 07:22:06;;;;;;;32.78;4.25;;;;;;;19.44;57.69;101525.88;7310085;19;129175;-41
2022/03/20 07:24:36;;;;;;;29.35;3.88;;;;;;;19.51;59.08;101542.91;7309296;19;129108;-41
2022/03/20 07:29:45;;;;;;;28.77;3.40;;;;;;;19.51;58.55;101548.13;7307489;19;130335;-39
2022/03/20 07:32:10;;;;;;;42.83;4.72;;;;;;;19.53;58.35;101535.84;7308236;19;154594;-38
2022/03/20 07:34:39;;;;;;;35.88;4.35;;;;;;;19.52;59.12;101544.56;7315587;19;130208;-40
2022/03/20 07:37:06;;;;;;;27.00;3.55;;;;;;;19.52;57.43;101541.97;7314945;19;129339;-40
2022/03/20 07:39:32;;;;;;;23.17;3.50;;;;;;;19.44;58.03;101526.72;7313371;19;130553;-40
2022/03/20 07:41:58;;;;;;;47.08;4.95;;;;;;;19.55;57.83;101548.81;7315415;19;128921;-40
2022/03/20 07:44:24;;;;;;;47.35;5.07;;;;;;;19.51;58.64;101529.84;7316200;19;130409;-41
2022/03/20 07:46:52;;;;;;;25.70;3.58;;;;;;;19.53;58.30;101550.63;7314192;19;129811;-41
2022/03/20 07:49:18;;;;;;;32.03;3.75;;;;;;;19.52;58.47;101543.75;7313985;19;129957;-41
2022/03/20 07:51:44;;;;;;;40.65;4.57;;;;;;;19.52;58.31;101559.41;7312811;19;129407;-39
2022/03/20 07:54:09;;;;;;;44.77;4.83;;;;;;;19.51;58.25;101548.13;7313332;19;158575;-36
2022/03/20 07:56:34;;;;;;;38.63;4.68;;;;;;;19.53;58.09;101550.63;7312385;19;158425;-41
2022/03/20 07:59:00;;;;;;;28.88;3.90;;;;;;;19.52;57.96;101541.16;7316866;19;129545;-40
2022/03/20 08:01:26;;;;;;;37.37;4.13;;;;;;;19.51;58.04;101542.03;7312971;19;129404;-41
2022/03/20 08:03:51;;;;;;;30.38;3.72;;;;;;;19.52;58.18;101548.97;7315615;19;130202;-40
2022/03/20 08:06:17;;;;;;;36.33;4.35;;;;;;;19.51;58.64;101536.81;7312292;19;139468;-41
2022/03/20 08:08:43;;;;;;;41.03;4.45;;;;;;;19.52;58.75;101546.34;7312882;19;130329;-40
2022/03/20 08:11:08;;;;;;;33.60;3.83;;;;;;;19.52;58.51;101543.75;7312784;19;129508;-41
2022/03/20 08:13:34;;;;;;;27.52;3.20;;;;;;;19.52;57.90;101538.53;7314267;19;129129;-38
2022/03/20 08:16:00;;;;;;;40.63;4.13;;;;;;;19.49;58.52;101536.91;7312772;19;129594;-41
2022/03/20 08:18:26;;;;;;;33.40;4.07;;;;;;;19.47;58.26;101535.31;7313931;19;129189;-40
2022/03/20 08:20:51;;;;;;;46.10;5.35;;;;;;;19.51;58.31;101536.81;7311923;19;130554;-41
2022/03/20 08:23:16;;;;;;;42.00;4.57;;;;;;;19.50;59.26;101532.53;7311558;19;158470;-40
2022/03/20 08:25:42;;;;;;;38.83;4.43;;;;;;;19.42;58.53;101522.50;7311167;19;158342;-41
2022/03/20 08:28:11;;;;;;;44.83;4.47;;;;;;;19.51;58.46;101542.03;7313265;19;130071;-40
2022/03/20 08:30:37;;;;;;;36.15;3.95;;;;;;;19.53;57.49;101535.00;7312414;19;129805;-39
2022/03/20 08:33:02;;;;;;;24.58;3.40;;;;;;;19.50;57.60;101533.41;7312985;19;130210;-40
2022/03/20 08:35:28;;;;;;;72.97;7.03;;;;;;;19.49;58.28;101542.13;7311992;19;131054;-40
2022/03/20 08:37:54;;;;;;;32.78;3.92;;;;;;;19.51;58.02;101532.47;7313461;19;129348;-41
2022/03/20 08:40:21;;;;;;;24.50;3.17;;;;;;;19.50;57.90;101545.59;7312323;19;129063;-40
2022/03/20 08:42:56;;;;;;;42.33;4.70;;;;;;;19.50;58.86;101529.94;7313083;19;131417;-40
2022/03/20 08:45:23;;;;;;;71.30;7.25;;;;;;;19.47;58.82;101549.19;7312278;19;129957;-41
2022/03/20 08:47:49;;;;;;;;;;;;;;;19.55;59.17;101543.59;7314977;19;130104;-41
2022/03/20 08:50:15;;;;;;;26.45;3.25;;;;;;;19.53;57.54;101540.22;7314575;19;129138;-41
2022/03/20 08:52:42;;;;;;;37.85;4.25;;;;;;;19.51;58.97;101542.03;7314074;19;129234;-41
2022/03/20 08:55:11;;;;;;;22.70;3.05;;;;;;;19.40;57.78;101529.56;7312904;19;130411;-41
2022/03/20 08:57:41;;;;;;;29.08;3.55;;;;;;;19.50;59.19;101542.97;7314172;19;129371;-41
2022/03/20 09:00:12;;;;;;;55.70;5.55;;;;;;;19.50;58.56;101540.38;7312087;19;129169;-40
2022/03/20 09:02:38;;;;;;;31.55;3.88;;;;;;;19.49;58.45;101549.94;7313416;19;131510;-40
2022/03/20 09:05:06;;;;;;;31.33;3.50;;;;;;;19.44;58.47;101525.88;7310711;19;158493;-41
2022/03/20 09:07:31;;;;;;;23.92;2.95;;;;;;;19.50;58.64;101545.59;7312447;19;129622;-39
2022/03/20 09:09:57;;;;;;;28.90;3.60;;;;;;;19.49;58.43;101536.91;7312943;19;129264;-41
2022/03/20 09:12:23;;;;;;;51.80;5.68;;;;;;;19.51;58.84;101557.69;7306816;19;129818;-41
2022/03/20 09:14:48;;;;;;;47.45;4.95;;;;;;;19.52;58.69;101533.31;7312539;19;130607;-41
2022/03/20 09:19:58;;;;;;;28.77;3.25;;;;;;;19.48;58.51;101542.22;7313237;19;129158;-40
2022/03/20 09:22:25;;;;;;;38.97;4.68;;;;;;;19.48;58.27;101531.78;7310001;19;158085;-40
2022/03/20 09:24:51;;;;;;;43.28;4.72;;;;;;;19.38;58.48;101527.06;7309544;19;129725;-40
2022/03/20 09:27:16;;;;;;;64.78;6.50;;;;;;;19.47;58.77;101530.91;7309040;19;154743;-40
2022/03/20 09:29:41;;;;;;;45.15;4.78;;;;;;;19.48;58.58;101532.63;7309006;19;154276;-40
2022/03/20 09:32:07;;;;;;;18.60;2.77;;;;;;;19.48;58.59;101543.88;7309097;19;158404;-40
2022/03/20 09:34:33;;;;;;;43.17;4.78;;;;;;;19.44;57.93;101531.94;7309796;19;131150;-39
2022/03/20 09:36:58;;;;;;;31.80;3.88;;;;;;;19.48;58.77;101520.41;7311315;19;130564;-40
2022/03/20 09:39:26;;;;;;;66.50;6.40;;;;;;;19.45;58.08;101554.47;7308256;19;154215;-41
2022/03/20 09:41:54;;;;;;;58.40;5.38;;;;;;;19.45;58.23;101522.34;7312607;19;130174;-41
2022/03/20 09:44:23;;;;;;;40.42;4.03;;;;;;;19.44;58.23;101511.06;7308374;19;132350;-41
2022/03/20 09:46:48;;;;;;;42.90;4.63;;;;;;;19.47;58.52;101510.06;7307436;19;130455;-41
2022/03/20 09:49:15;;;;;;;37.60;4.30;;;;;;;19.48;58.86;101506.53;7306334;19;143095;-40
2022/03/20 09:51:41;;;;;;;63.88;6.03;;;;;;;19.51;57.96;101505.53;7305049;19;130154;-41
2022/03/20 09:54:08;;;;;;;36.60;4.80;;;;;;;19.48;57.67;101497.88;7309168;19;130249;-41
2022/03/20 09:56:34;;;;;;;50.65;5.25;;;;;;;19.45;58.48;101507.53;7306861;19;130087;-40
2022/03/20 09:58:59;;;;;;;31.48;3.63;;;;;;;19.45;58.35;101517.13;7309468;19;129090;-39
2022/03/20 10:01:24;;;;;;;39.90;4.35;;;;;;;19.37;58.01;101486.22;7306203;19;158746;-41
2022/03/20 10:04:10;;;;;;;55.55;5.28;;;;;;;19.47;58.65;101504.03;7308850;19;158367;-40
2022/03/20 10:06:37;;;;;;;16.80;2.95;;;;;;;19.47;58.59;101509.22;7311116;19;129422;-39
2022/03/20 10:09:04;;;;;;;14.10;2.70;;;;;;;19.47;58.30;101504.03;7310966;19;128981;-41
2022/03/20 10:11:30;;;;;;;31.52;4.00;;;;;;;19.50;58.69;101496.03;7305724;19;131130;-40
2022/03/20 10:14:16;;;;;;;39.55;4.32;;;;;;;19.48;59.04;101494.31;7308743;19;130507;-41
2022/03/20 10:16:48;;;;;;;33.00;4.07;;;;;;;19.48;58.59;101500.47;7309396;19;129606;-40
2022/03/20 10:19:22;;;;;;;36.58;4.60;;;;;;;19.48;58.58;101505.69;7310689;19;130665;-42
2022/03/20 10:21:51;;;;;;;33.67;4.13;;;;;;;19.47;58.03;101504.03;7309541;19;158199;-41
2022/03/20 10:24:18;;;;;;;49.00;4.93;;;;;;;19.46;57.93;101487.50;7307941;19;130982;-40
2022/03/20 10:26:43;;;;;;;;;;;;;;;19.50;58.34;101483.84;7309930;19;129562;-41
2022/03/20 10:29:16;;;;;;;32.20;4.20;;;;;;;19.45;58.93;101486.66;7312712;19;129190;-42
2022/03/20 10:31:51;;;;;;;28.80;4.15;;;;;;;19.47;58.50;101489.19;7307535;19;130771;-40
2022/03/20 10:34:18;;;;;;;14.35;2.78;;;;;;;19.47;58.39;101475.31;7310934;19;131151;-42
2022/03/20 10:36:44;;;;;;;31.15;4.00;;;;;;;19.45;58.03;101478.84;7306692;19;130331;-40
2022/03/20 10:39:12;;;;;;;22.73;3.33;;;;;;;19.50;57.34;101480.38;7309854;19;130481;-41
2022/03/20 10:41:38;;;;;;;38.28;4.70;;;;;;;19.48;58.28;101500.47;7309513;19;129805;-41
2022/03/20 10:44:18;;;;;;;41.28;4.68;;;;;;;19.49;58.63;101469.09;7307477;19;131884;-38
2022/03/20 10:46:56;;;;;;;38.33;4.95;;;;;;;19.50;58.68;101462.13;7308820;19;130089;-39
2022/03/20 10:49:21;;;;;;;44.92;4.97;;;;;;;19.48;57.36;101469.16;7308295;19;129158;-39
2022/03/20 10:52:04;;;;;;;33.90;4.57;;;;;;;19.47;58.63;101462.28;7307936;19;130153;-38
2022/03/20 10:54:45;;;;;;;76.63;7.57;;;;;;;19.48;58.66;101463.00;7300843;19;131369;-41
2022/03/20 10:57:12;;;;;;;66.78;6.20;;;;;;;19.45;58.20;101478.84;7294191;19;129851;-39
2022/03/20 10:59:39;;;;;;;48.08;4.85;;;;;;;19.45;58.16;101452.75;7298094;19;131004;-38
2022/03/20 11:02:08;;;;;;;42.42;4.93;;;;;;;19.44;58.70;101451.09;7307597;19;130171;-39
2022/03/20 11:04:33;;;;;;;50.15;5.35;;;;;;;19.43;57.52;101446.78;7306551;19;129508;-38
2022/03/20 11:07:07;;;;;;;29.48;4.53;;;;;;;19.46;58.05;101456.22;7305613;19;130830;-38
2022/03/20 11:09:32;;;;;;;49.03;5.43;;;;;;;19.40;58.05;101452.16;7311666;19;129519;-38
2022/03/20 11:11:59;;;;;;;30.45;4.13;;;;;;;19.55;57.57;101460.09;7310252;19;130711;-39
2022/03/20 11:14:26;;;;;;;47.25;5.55;;;;;;;19.51;57.05;101449.00;7312391;19;130368;-38
2022/03/20 11:17:06;;;;;;;54.92;5.53;;;;;;;19.48;58.52;101449.97;7314087;19;129559;-38
2022/03/20 11:19:34;;;;;;;47.70;5.30;;;;;;;19.52;57.55;101444.63;7313277;19;130274;-39
2022/03/20 11:22:05;;;;;;;57.80;6.63;;;;;;;19.53;58.19;101441.94;7312766;19;130678;-39
2022/03/20 11:24:31;;;;;;;79.25;8.43;;;;;;;19.54;57.04;101463.63;7310089;19;130110;-38
2022/03/20 11:27:01;;;;;;;40.72;5.97;;;;;;;19.56;58.35;101438.31;7311997;19;130496;-37
2022/03/20 11:29:29;;;;;;;56.40;7.45;;;;;;;19.55;57.36;101434.88;7311219;19;131199;-38
2022/03/20 11:31:56;;;;;;;76.00;8.63;;;;;;;19.57;57.63;101433.00;7310213;19;130346;-39
2022/03/20 11:34:24;;;;;;;64.68;7.72;;;;;;;19.63;56.45;101431.84;7310412;19;130980;-40
2022/03/20 11:37:06;;;;;;;48.28;6.45;;;;;;;19.63;58.14;101418.78;7312254;19;129479;-37
2022/03/20 11:39:33;;;;;;;54.92;7.43;;;;;;;19.59;57.21;101431.16;7310982;19;129120;-37